sensor_id;sensor_type;location;lat;lon;timestamp;temperature;humidity
54558;DHT22;40452;50.080;20.040;2022-10-16T05:31:11;19.40;56.00
54558;DHT22;40452;50.080;20.040;2022-10-16T05:33:36;20.10;56.00
54558;DHT22;40452;50.080;20.040;2022-10-16T05:36:04;20.20;56.00
54558;DHT22;40452;50.080;20.040;2022-10-16T05:38:30;20.20;55.90
54558;DHT22;40452;50.080;20.040;2022-10-16T05:40:56;20.30;56.10
54558;DHT22;40452;50.080;20.040;2022-10-16T05:43:22;20.30;56.20
54558;DHT22;40452;50.080;20.040;2022-10-16T05:46:14;20.30;56.30
54558;DHT22;40452;50.080;20.040;2022-10-16T05:48:39;20.40;56.50
54558;DHT22;40452;50.080;20.040;2022-10-16T05:51:07;20.30;56.40
54558;DHT22;40452;50.080;20.040;2022-10-16T05:53:35;20.30;56.40
54558;DHT22;40452;50.080;20.040;2022-10-16T05:56:02;20.40;56.40
54558;DHT22;40452;50.080;20.040;2022-10-16T05:58:35;20.40;56.30
54558;DHT22;40452;50.080;20.040;2022-10-16T06:01:03;20.40;56.30
54558;DHT22;40452;50.080;20.040;2022-10-16T06:03:29;20.40;56.30
54558;DHT22;40452;50.080;20.040;2022-10-16T06:05:55;20.40;56.40
54558;DHT22;40452;50.080;20.040;2022-10-16T06:08:22;20.50;56.80
54558;DHT22;40452;50.080;20.040;2022-10-16T06:10:48;20.50;57.00
54558;DHT22;40452;50.080;20.040;2022-10-16T06:13:14;20.50;57.20
54558;DHT22;40452;50.080;20.040;2022-10-16T06:15:41;20.50;57.10
54558;DHT22;40452;50.080;20.040;2022-10-16T06:18:08;20.50;57.00
54558;DHT22;40452;50.080;20.040;2022-10-16T06:20:34;20.50;56.90
54558;DHT22;40452;50.080;20.040;2022-10-16T06:23:00;20.50;56.90
54558;DHT22;40452;50.080;20.040;2022-10-16T06:25:25;20.50;56.90
54558;DHT22;40452;50.080;20.040;2022-10-16T06:27:51;20.50;56.90
54558;DHT22;40452;50.080;20.040;2022-10-16T06:30:16;20.50;56.80
54558;DHT22;40452;50.080;20.040;2022-10-16T06:32:42;20.60;56.70
54558;DHT22;40452;50.080;20.040;2022-10-16T06:35:07;20.50;56.60
54558;DHT22;40452;50.080;20.040;2022-10-16T06:37:33;20.50;56.40
54558;DHT22;40452;50.080;20.040;2022-10-16T06:39:59;20.60;56.50
54558;DHT22;40452;50.080;20.040;2022-10-16T06:42:25;20.60;56.40
54558;DHT22;40452;50.080;20.040;2022-10-16T06:44:51;20.60;56.40
54558;DHT22;40452;50.080;20.040;2022-10-16T06:47:16;20.60;56.30
54558;DHT22;40452;50.080;20.040;2022-10-16T06:49:42;20.60;56.30
54558;DHT22;40452;50.080;20.040;2022-10-16T06:52:07;20.60;56.20
54558;DHT22;40452;50.080;20.040;2022-10-16T06:54:33;20.60;56.20
54558;DHT22;40452;50.080;20.040;2022-10-16T06:56:58;20.60;56.10
54558;DHT22;40452;50.080;20.040;2022-10-16T06:59:25;20.60;56.10
54558;DHT22;40452;50.080;20.040;2022-10-16T07:01:50;20.60;56.10
54558;DHT22;40452;50.080;20.040;2022-10-16T07:04:16;20.60;56.10
54558;DHT22;40452;50.080;20.040;2022-10-16T07:06:41;20.70;56.20
54558;DHT22;40452;50.080;20.040;2022-10-16T07:09:09;20.70;56.30
54558;DHT22;40452;50.080;20.040;2022-10-16T07:11:37;20.70;56.20
54558;DHT22;40452;50.080;20.040;2022-10-16T07:14:03;20.70;56.10
54558;DHT22;40452;50.080;20.040;2022-10-16T07:16:30;20.70;56.10
54558;DHT22;40452;50.080;20.040;2022-10-16T07:18:58;20.70;56.20
54558;DHT22;40452;50.080;20.040;2022-10-16T07:21:26;20.70;56.30
54558;DHT22;40452;50.080;20.040;2022-10-16T07:23:53;20.70;56.20
54558;DHT22;40452;50.080;20.040;2022-10-16T07:26:19;20.70;56.20
54558;DHT22;40452;50.080;20.040;2022-10-16T07:28:45;20.80;56.30
54558;DHT22;40452;50.080;20.040;2022-10-16T07:31:13;20.80;56.20
54558;DHT22;40452;50.080;20.040;2022-10-16T07:33:40;20.80;56.20
54558;DHT22;40452;50.080;20.040;2022-10-16T07:36:07;20.80;56.20
54558;DHT22;40452;50.080;20.040;2022-10-16T07:38:32;20.80;56.20
54558;DHT22;40452;50.080;20.040;2022-10-16T07:41:04;20.80;56.20
54558;DHT22;40452;50.080;20.040;2022-10-16T07:43:30;20.80;56.10
54558;DHT22;40452;50.080;20.040;2022-10-16T07:45:56;20.80;56.10
54558;DHT22;40452;50.080;20.040;2022-10-16T07:48:23;20.80;56.10
54558;DHT22;40452;50.080;20.040;2022-10-16T07:50:49;20.80;56.00
54558;DHT22;40452;50.080;20.040;2022-10-16T07:53:15;20.80;56.00
54558;DHT22;40452;50.080;20.040;2022-10-16T07:55:41;20.80;55.90
54558;DHT22;40452;50.080;20.040;2022-10-16T07:58:07;20.80;56.00
54558;DHT22;40452;50.080;20.040;2022-10-16T08:00:32;20.80;55.90
54558;DHT22;40452;50.080;20.040;2022-10-16T08:02:58;20.80;55.90
54558;DHT22;40452;50.080;20.040;2022-10-16T08:05:28;20.80;55.80
54558;DHT22;40452;50.080;20.040;2022-10-16T08:07:54;20.80;55.80
54558;DHT22;40452;50.080;20.040;2022-10-16T08:10:21;20.80;55.80
54558;DHT22;40452;50.080;20.040;2022-10-16T08:12:48;20.80;55.80
54558;DHT22;40452;50.080;20.040;2022-10-16T08:15:13;20.90;55.90
54558;DHT22;40452;50.080;20.040;2022-10-16T08:17:39;20.90;55.80
54558;DHT22;40452;50.080;20.040;2022-10-16T08:20:05;20.90;55.80
54558;DHT22;40452;50.080;20.040;2022-10-16T08:22:30;20.90;55.80
54558;DHT22;40452;50.080;20.040;2022-10-16T08:24:56;20.90;55.70
54558;DHT22;40452;50.080;20.040;2022-10-16T08:27:22;20.90;55.70
54558;DHT22;40452;50.080;20.040;2022-10-16T08:29:50;20.90;55.70
54558;DHT22;40452;50.080;20.040;2022-10-16T08:32:16;20.90;55.80
54558;DHT22;40452;50.080;20.040;2022-10-16T08:34:41;20.90;55.70
54558;DHT22;40452;50.080;20.040;2022-10-16T08:37:07;20.90;55.70
54558;DHT22;40452;50.080;20.040;2022-10-16T08:39:36;20.90;55.70
54558;DHT22;40452;50.080;20.040;2022-10-16T08:45:37;21.00;55.80
54558;DHT22;40452;50.080;20.040;2022-10-16T08:50:50;21.00;55.90
54558;DHT22;40452;50.080;20.040;2022-10-16T08:53:30;21.00;56.00
54558;DHT22;40452;50.080;20.040;2022-10-16T08:55:56;21.00;56.00
54558;DHT22;40452;50.080;20.040;2022-10-16T08:58:27;21.00;56.00
54558;DHT22;40452;50.080;20.040;2022-10-16T09:00:56;21.00;56.10
54558;DHT22;40452;50.080;20.040;2022-10-16T09:09:13;21.10;56.20
54558;DHT22;40452;50.080;20.040;2022-10-16T09:17:33;21.10;56.20
54558;DHT22;40452;50.080;20.040;2022-10-16T09:23:13;21.10;56.20
54558;DHT22;40452;50.080;20.040;2022-10-16T09:25:43;21.10;56.10
54558;DHT22;40452;50.080;20.040;2022-10-16T09:28:09;21.10;56.20
54558;DHT22;40452;50.080;20.040;2022-10-16T09:30:35;21.10;56.20
54558;DHT22;40452;50.080;20.040;2022-10-16T09:33:02;21.10;56.20
54558;DHT22;40452;50.080;20.040;2022-10-16T09:35:37;21.10;56.20
54558;DHT22;40452;50.080;20.040;2022-10-16T09:38:03;21.10;56.20
54558;DHT22;40452;50.080;20.040;2022-10-16T09:40:30;21.10;56.20
54558;DHT22;40452;50.080;20.040;2022-10-16T09:43:19;21.10;56.10
54558;DHT22;40452;50.080;20.040;2022-10-16T09:45:59;21.10;56.20
54558;DHT22;40452;50.080;20.040;2022-10-16T09:48:31;21.10;56.20
54558;DHT22;40452;50.080;20.040;2022-10-16T09:51:01;21.20;56.40
54558;DHT22;40452;50.080;20.040;2022-10-16T09:53:39;21.20;56.60
54558;DHT22;40452;50.080;20.040;2022-10-16T09:56:05;21.20;56.50
54558;DHT22;40452;50.080;20.040;2022-10-16T09:58:32;21.20;56.50
54558;DHT22;40452;50.080;20.040;2022-10-16T10:00:59;21.20;56.40
54558;DHT22;40452;50.080;20.040;2022-10-16T10:03:38;21.20;56.40
54558;DHT22;40452;50.080;20.040;2022-10-16T10:06:23;21.20;56.60
54558;DHT22;40452;50.080;20.040;2022-10-16T10:11:40;21.20;56.90
54558;DHT22;40452;50.080;20.040;2022-10-16T10:14:22;21.20;57.30
54558;DHT22;40452;50.080;20.040;2022-10-16T10:16:50;21.20;57.90
54558;DHT22;40452;50.080;20.040;2022-10-16T10:19:21;21.10;57.50
54558;DHT22;40452;50.080;20.040;2022-10-16T10:21:48;21.20;58.10
54558;DHT22;40452;50.080;20.040;2022-10-16T10:24:15;21.20;57.80
54558;DHT22;40452;50.080;20.040;2022-10-16T10:27:14;21.20;57.60
54558;DHT22;40452;50.080;20.040;2022-10-16T10:29:53;21.20;57.60
54558;DHT22;40452;50.080;20.040;2022-10-16T10:32:39;21.20;57.60
54558;DHT22;40452;50.080;20.040;2022-10-16T10:35:14;21.20;58.00
54558;DHT22;40452;50.080;20.040;2022-10-16T10:40:17;21.20;58.00
54558;DHT22;40452;50.080;20.040;2022-10-16T10:45:27;21.20;58.40
54558;DHT22;40452;50.080;20.040;2022-10-16T10:50:50;21.20;58.50
54558;DHT22;40452;50.080;20.040;2022-10-16T10:53:39;21.20;58.70
54558;DHT22;40452;50.080;20.040;2022-10-16T10:59:23;21.20;58.90
54558;DHT22;40452;50.080;20.040;2022-10-16T11:07:58;21.20;59.50
54558;DHT22;40452;50.080;20.040;2022-10-16T11:10:33;21.20;59.50
54558;DHT22;40452;50.080;20.040;2022-10-16T11:13:28;21.20;59.40
54558;DHT22;40452;50.080;20.040;2022-10-16T11:16:06;21.20;59.40
54558;DHT22;40452;50.080;20.040;2022-10-16T11:19:05;21.20;59.80
54558;DHT22;40452;50.080;20.040;2022-10-16T11:21:43;21.20;60.00
54558;DHT22;40452;50.080;20.040;2022-10-16T11:24:16;21.20;60.10
54558;DHT22;40452;50.080;20.040;2022-10-16T11:26:47;21.20;60.40
54558;DHT22;40452;50.080;20.040;2022-10-16T11:29:23;21.20;59.80
54558;DHT22;40452;50.080;20.040;2022-10-16T11:31:53;21.20;59.90
54558;DHT22;40452;50.080;20.040;2022-10-16T11:34:55;21.20;59.80
54558;DHT22;40452;50.080;20.040;2022-10-16T11:37:30;21.20;60.00
54558;DHT22;40452;50.080;20.040;2022-10-16T11:40:03;21.20;59.90
54558;DHT22;40452;50.080;20.040;2022-10-16T11:42:37;21.20;59.90
54558;DHT22;40452;50.080;20.040;2022-10-16T11:51:09;21.20;59.60
54558;DHT22;40452;50.080;20.040;2022-10-16T11:56:30;21.20;59.40
54558;DHT22;40452;50.080;20.040;2022-10-16T11:59:04;21.20;59.50
54558;DHT22;40452;50.080;20.040;2022-10-16T12:01:44;21.20;59.50
54558;DHT22;40452;50.080;20.040;2022-10-16T12:04:34;21.20;59.30
54558;DHT22;40452;50.080;20.040;2022-10-16T12:07:11;21.20;59.20
54558;DHT22;40452;50.080;20.040;2022-10-16T12:09:40;21.20;59.30
54558;DHT22;40452;50.080;20.040;2022-10-16T12:12:26;21.20;59.30
54558;DHT22;40452;50.080;20.040;2022-10-16T12:15:18;21.30;59.10
54558;DHT22;40452;50.080;20.040;2022-10-16T12:17:43;21.30;59.10
54558;DHT22;40452;50.080;20.040;2022-10-16T12:22:41;21.30;58.90
54558;DHT22;40452;50.080;20.040;2022-10-16T12:25:33;21.30;58.90
54558;DHT22;40452;50.080;20.040;2022-10-16T12:28:17;21.30;58.90
54558;DHT22;40452;50.080;20.040;2022-10-16T12:31:02;21.30;58.80
54558;DHT22;40452;50.080;20.040;2022-10-16T12:33:30;21.30;58.80
54558;DHT22;40452;50.080;20.040;2022-10-16T12:35:59;21.30;58.80
54558;DHT22;40452;50.080;20.040;2022-10-16T12:38:36;21.30;59.40
54558;DHT22;40452;50.080;20.040;2022-10-16T12:41:05;21.30;58.50
54558;DHT22;40452;50.080;20.040;2022-10-16T12:43:36;21.30;58.40
54558;DHT22;40452;50.080;20.040;2022-10-16T12:46:23;21.30;58.30
54558;DHT22;40452;50.080;20.040;2022-10-16T12:48:49;21.30;58.10
54558;DHT22;40452;50.080;20.040;2022-10-16T12:54:02;21.30;58.00
54558;DHT22;40452;50.080;20.040;2022-10-16T12:56:44;21.30;57.90
54558;DHT22;40452;50.080;20.040;2022-10-16T12:59:42;21.30;57.80
54558;DHT22;40452;50.080;20.040;2022-10-16T13:08:07;21.40;58.60
54558;DHT22;40452;50.080;20.040;2022-10-16T13:11:00;21.40;59.00
54558;DHT22;40452;50.080;20.040;2022-10-16T13:22:19;21.40;58.90
54558;DHT22;40452;50.080;20.040;2022-10-16T13:30:17;21.40;58.70
54558;DHT22;40452;50.080;20.040;2022-10-16T13:33:01;21.40;58.40
54558;DHT22;40452;50.080;20.040;2022-10-16T13:35:31;21.30;58.30
54558;DHT22;40452;50.080;20.040;2022-10-16T13:38:04;21.30;58.90
54558;DHT22;40452;50.080;20.040;2022-10-16T13:40:30;21.30;59.60
54558;DHT22;40452;50.080;20.040;2022-10-16T13:42:56;21.30;60.00
54558;DHT22;40452;50.080;20.040;2022-10-16T13:45:23;21.30;60.20
54558;DHT22;40452;50.080;20.040;2022-10-16T13:48:00;21.30;59.80
54558;DHT22;40452;50.080;20.040;2022-10-16T13:50:26;21.30;59.80
54558;DHT22;40452;50.080;20.040;2022-10-16T13:52:51;21.30;59.60
54558;DHT22;40452;50.080;20.040;2022-10-16T13:55:18;21.30;59.50
54558;DHT22;40452;50.080;20.040;2022-10-16T13:57:44;21.30;59.40
54558;DHT22;40452;50.080;20.040;2022-10-16T14:00:25;21.30;59.30
54558;DHT22;40452;50.080;20.040;2022-10-16T14:03:03;21.30;59.30
54558;DHT22;40452;50.080;20.040;2022-10-16T14:05:29;21.30;59.30
54558;DHT22;40452;50.080;20.040;2022-10-16T14:07:55;21.30;59.30
54558;DHT22;40452;50.080;20.040;2022-10-16T14:10:28;21.30;59.40
54558;DHT22;40452;50.080;20.040;2022-10-16T14:13:03;21.30;59.10
54558;DHT22;40452;50.080;20.040;2022-10-16T14:15:30;21.40;59.20
54558;DHT22;40452;50.080;20.040;2022-10-16T14:17:58;21.30;59.10
54558;DHT22;40452;50.080;20.040;2022-10-16T14:20:27;21.30;58.90
54558;DHT22;40452;50.080;20.040;2022-10-16T14:23:46;21.30;58.90
54558;DHT22;40452;50.080;20.040;2022-10-16T14:28:37;21.30;58.90
54558;DHT22;40452;50.080;20.040;2022-10-16T14:33:49;21.30;58.80
54558;DHT22;40452;50.080;20.040;2022-10-16T14:36:15;21.30;58.60
54558;DHT22;40452;50.080;20.040;2022-10-16T14:39:17;21.30;58.60
54558;DHT22;40452;50.080;20.040;2022-10-16T14:41:50;21.30;58.80
54558;DHT22;40452;50.080;20.040;2022-10-16T14:44:18;21.30;58.80
54558;DHT22;40452;50.080;20.040;2022-10-16T14:46:45;21.30;58.50
54558;DHT22;40452;50.080;20.040;2022-10-16T14:51:37;21.30;58.80
54558;DHT22;40452;50.080;20.040;2022-10-16T14:54:03;21.30;58.60
54558;DHT22;40452;50.080;20.040;2022-10-16T14:56:34;21.20;58.70
54558;DHT22;40452;50.080;20.040;2022-10-16T14:59:01;21.30;59.00
54558;DHT22;40452;50.080;20.040;2022-10-16T15:01:27;21.30;58.80
54558;DHT22;40452;50.080;20.040;2022-10-16T15:03:53;21.30;59.60
54558;DHT22;40452;50.080;20.040;2022-10-16T15:06:20;21.30;59.10
54558;DHT22;40452;50.080;20.040;2022-10-16T15:08:46;21.30;58.90
54558;DHT22;40452;50.080;20.040;2022-10-16T15:11:17;21.30;58.80
54558;DHT22;40452;50.080;20.040;2022-10-16T15:13:43;21.30;59.10
54558;DHT22;40452;50.080;20.040;2022-10-16T15:16:13;21.30;59.10
54558;DHT22;40452;50.080;20.040;2022-10-16T15:18:39;21.30;59.10
54558;DHT22;40452;50.080;20.040;2022-10-16T15:21:05;21.30;58.80
54558;DHT22;40452;50.080;20.040;2022-10-16T15:23:30;21.30;58.90
54558;DHT22;40452;50.080;20.040;2022-10-16T15:25:56;21.30;59.00
54558;DHT22;40452;50.080;20.040;2022-10-16T15:28:23;21.30;58.90
54558;DHT22;40452;50.080;20.040;2022-10-16T15:30:51;21.30;58.90
54558;DHT22;40452;50.080;20.040;2022-10-16T15:33:25;21.30;58.70
54558;DHT22;40452;50.080;20.040;2022-10-16T15:35:58;21.30;58.70
54558;DHT22;40452;50.080;20.040;2022-10-16T15:38:24;21.30;58.70
54558;DHT22;40452;50.080;20.040;2022-10-16T15:40:50;21.30;58.70
54558;DHT22;40452;50.080;20.040;2022-10-16T15:43:16;21.30;58.60
54558;DHT22;40452;50.080;20.040;2022-10-16T15:45:41;21.30;59.20
54558;DHT22;40452;50.080;20.040;2022-10-16T15:48:12;21.30;58.60
54558;DHT22;40452;50.080;20.040;2022-10-16T15:50:39;21.30;58.50
54558;DHT22;40452;50.080;20.040;2022-10-16T15:53:05;21.30;58.40
54558;DHT22;40452;50.080;20.040;2022-10-16T15:55:30;21.30;58.60
54558;DHT22;40452;50.080;20.040;2022-10-16T15:57:56;21.30;58.70
54558;DHT22;40452;50.080;20.040;2022-10-16T16:00:21;21.30;58.80
54558;DHT22;40452;50.080;20.040;2022-10-16T16:02:53;21.30;58.50
54558;DHT22;40452;50.080;20.040;2022-10-16T16:05:21;21.30;58.50
54558;DHT22;40452;50.080;20.040;2022-10-16T16:07:47;21.30;58.50
54558;DHT22;40452;50.080;20.040;2022-10-16T16:10:13;21.30;58.40
54558;DHT22;40452;50.080;20.040;2022-10-16T16:12:38;21.30;58.40
54558;DHT22;40452;50.080;20.040;2022-10-16T16:15:05;21.30;58.40
54558;DHT22;40452;50.080;20.040;2022-10-16T16:17:32;21.30;58.30
54558;DHT22;40452;50.080;20.040;2022-10-16T16:19:58;21.40;58.40
54558;DHT22;40452;50.080;20.040;2022-10-16T16:22:23;21.40;58.40
54558;DHT22;40452;50.080;20.040;2022-10-16T16:24:49;21.40;58.30
54558;DHT22;40452;50.080;20.040;2022-10-16T16:27:15;21.40;58.30
54558;DHT22;40452;50.080;20.040;2022-10-16T16:29:41;21.30;58.40
54558;DHT22;40452;50.080;20.040;2022-10-16T16:32:06;21.40;58.20
54558;DHT22;40452;50.080;20.040;2022-10-16T16:34:31;21.30;58.20
54558;DHT22;40452;50.080;20.040;2022-10-16T16:36:57;21.30;58.10
54558;DHT22;40452;50.080;20.040;2022-10-16T16:39:23;21.40;58.20
54558;DHT22;40452;50.080;20.040;2022-10-16T16:41:49;21.30;58.70
54558;DHT22;40452;50.080;20.040;2022-10-16T16:44:16;21.30;58.70
54558;DHT22;40452;50.080;20.040;2022-10-16T16:46:43;21.30;58.20
54558;DHT22;40452;50.080;20.040;2022-10-16T16:49:13;21.30;58.10
54558;DHT22;40452;50.080;20.040;2022-10-16T16:51:38;21.30;58.30
54558;DHT22;40452;50.080;20.040;2022-10-16T16:54:05;21.30;58.20
54558;DHT22;40452;50.080;20.040;2022-10-16T16:56:31;21.40;58.20
54558;DHT22;40452;50.080;20.040;2022-10-16T16:58:57;21.30;58.10
54558;DHT22;40452;50.080;20.040;2022-10-16T17:01:24;21.30;58.00
54558;DHT22;40452;50.080;20.040;2022-10-16T17:03:51;21.30;57.60
54558;DHT22;40452;50.080;20.040;2022-10-16T17:06:18;21.30;57.80
54558;DHT22;40452;50.080;20.040;2022-10-16T17:08:44;21.30;57.80
54558;DHT22;40452;50.080;20.040;2022-10-16T17:11:21;21.30;57.90
54558;DHT22;40452;50.080;20.040;2022-10-16T17:13:48;21.30;57.80
54558;DHT22;40452;50.080;20.040;2022-10-16T17:16:14;21.30;57.80
54558;DHT22;40452;50.080;20.040;2022-10-16T17:18:39;21.30;58.10
54558;DHT22;40452;50.080;20.040;2022-10-16T17:21:07;21.30;58.00
54558;DHT22;40452;50.080;20.040;2022-10-16T17:23:34;21.30;57.90
54558;DHT22;40452;50.080;20.040;2022-10-16T17:26:12;21.30;57.90
54558;DHT22;40452;50.080;20.040;2022-10-16T17:28:38;21.30;57.80
54558;DHT22;40452;50.080;20.040;2022-10-16T17:31:16;21.20;57.70
54558;DHT22;40452;50.080;20.040;2022-10-16T17:33:43;21.20;57.70
54558;DHT22;40452;50.080;20.040;2022-10-16T17:36:09;21.20;57.70
54558;DHT22;40452;50.080;20.040;2022-10-16T17:38:36;21.20;57.90
54558;DHT22;40452;50.080;20.040;2022-10-16T17:41:22;21.20;57.80
54558;DHT22;40452;50.080;20.040;2022-10-16T17:43:49;21.20;57.80
54558;DHT22;40452;50.080;20.040;2022-10-16T17:46:17;21.20;57.70
54558;DHT22;40452;50.080;20.040;2022-10-16T17:48:45;21.20;57.90
54558;DHT22;40452;50.080;20.040;2022-10-16T17:51:13;21.20;58.00
54558;DHT22;40452;50.080;20.040;2022-10-16T17:53:39;21.20;58.00
54558;DHT22;40452;50.080;20.040;2022-10-16T17:56:07;21.20;57.90
54558;DHT22;40452;50.080;20.040;2022-10-16T17:58:34;21.20;57.90
54558;DHT22;40452;50.080;20.040;2022-10-16T18:01:00;21.20;57.80
54558;DHT22;40452;50.080;20.040;2022-10-16T18:03:26;21.20;57.90
54558;DHT22;40452;50.080;20.040;2022-10-16T18:05:53;21.20;57.90
54558;DHT22;40452;50.080;20.040;2022-10-16T18:08:19;21.20;58.00
54558;DHT22;40452;50.080;20.040;2022-10-16T18:10:46;21.20;57.80
54558;DHT22;40452;50.080;20.040;2022-10-16T18:13:12;21.20;58.00
54558;DHT22;40452;50.080;20.040;2022-10-16T18:15:38;21.20;58.20
54558;DHT22;40452;50.080;20.040;2022-10-16T18:18:03;21.20;58.10
54558;DHT22;40452;50.080;20.040;2022-10-16T18:20:29;21.10;58.10
54558;DHT22;40452;50.080;20.040;2022-10-16T18:22:54;21.20;58.30
54558;DHT22;40452;50.080;20.040;2022-10-16T18:25:20;21.20;58.30
54558;DHT22;40452;50.080;20.040;2022-10-16T18:27:45;21.20;58.20
54558;DHT22;40452;50.080;20.040;2022-10-16T18:30:11;21.20;58.10
54558;DHT22;40452;50.080;20.040;2022-10-16T18:32:36;21.10;58.00
54558;DHT22;40452;50.080;20.040;2022-10-16T18:35:02;21.20;58.00
54558;DHT22;40452;50.080;20.040;2022-10-16T18:37:27;21.20;58.00
54558;DHT22;40452;50.080;20.040;2022-10-16T18:39:53;21.20;58.00
54558;DHT22;40452;50.080;20.040;2022-10-16T18:42:18;21.10;57.90
54558;DHT22;40452;50.080;20.040;2022-10-16T18:44:44;21.10;57.90
54558;DHT22;40452;50.080;20.040;2022-10-16T18:47:10;21.10;57.80
54558;DHT22;40452;50.080;20.040;2022-10-16T18:49:35;21.10;57.80
54558;DHT22;40452;50.080;20.040;2022-10-16T18:52:01;21.10;57.80
54558;DHT22;40452;50.080;20.040;2022-10-16T18:54:27;21.10;57.70
54558;DHT22;40452;50.080;20.040;2022-10-16T18:56:53;21.10;57.60
54558;DHT22;40452;50.080;20.040;2022-10-16T18:59:19;21.10;57.60
54558;DHT22;40452;50.080;20.040;2022-10-16T19:01:45;21.10;57.60
54558;DHT22;40452;50.080;20.040;2022-10-16T19:04:14;21.10;57.60
54558;DHT22;40452;50.080;20.040;2022-10-16T19:06:42;21.10;57.50
54558;DHT22;40452;50.080;20.040;2022-10-16T19:09:09;21.20;57.80
54558;DHT22;40452;50.080;20.040;2022-10-16T19:11:35;21.20;57.70
54558;DHT22;40452;50.080;20.040;2022-10-16T19:14:01;21.20;57.90
54558;DHT22;40452;50.080;20.040;2022-10-16T19:16:29;21.20;57.60
54558;DHT22;40452;50.080;20.040;2022-10-16T19:18:56;21.20;57.60
54558;DHT22;40452;50.080;20.040;2022-10-16T19:21:23;21.20;57.60
54558;DHT22;40452;50.080;20.040;2022-10-16T19:23:54;21.20;57.60
54558;DHT22;40452;50.080;20.040;2022-10-16T19:26:20;21.20;57.50
54558;DHT22;40452;50.080;20.040;2022-10-16T19:28:46;21.20;58.20
54558;DHT22;40452;50.080;20.040;2022-10-16T19:31:16;21.20;57.60
54558;DHT22;40452;50.080;20.040;2022-10-16T19:33:42;21.20;57.50
54558;DHT22;40452;50.080;20.040;2022-10-16T19:36:11;21.20;57.50
54558;DHT22;40452;50.080;20.040;2022-10-16T19:38:38;21.20;57.50
54558;DHT22;40452;50.080;20.040;2022-10-16T19:43:30;21.20;57.40
54558;DHT22;40452;50.080;20.040;2022-10-16T19:45:56;21.20;57.40
54558;DHT22;40452;50.080;20.040;2022-10-16T19:48:21;21.20;57.40
54558;DHT22;40452;50.080;20.040;2022-10-16T19:50:47;21.20;57.40
54558;DHT22;40452;50.080;20.040;2022-10-16T19:53:12;21.20;57.50
54558;DHT22;40452;50.080;20.040;2022-10-16T19:55:38;21.20;57.40
54558;DHT22;40452;50.080;20.040;2022-10-16T19:58:04;21.20;57.30
54558;DHT22;40452;50.080;20.040;2022-10-16T20:00:30;21.20;57.30
54558;DHT22;40452;50.080;20.040;2022-10-16T20:02:55;21.20;57.30
54558;DHT22;40452;50.080;20.040;2022-10-16T20:05:21;21.20;57.30
54558;DHT22;40452;50.080;20.040;2022-10-16T20:07:46;21.20;57.30
54558;DHT22;40452;50.080;20.040;2022-10-16T20:10:12;21.20;57.30
54558;DHT22;40452;50.080;20.040;2022-10-16T20:12:37;21.20;57.30
54558;DHT22;40452;50.080;20.040;2022-10-16T20:15:03;21.20;57.50
54558;DHT22;40452;50.080;20.040;2022-10-16T20:17:29;21.20;57.60
54558;DHT22;40452;50.080;20.040;2022-10-16T20:19:54;21.20;57.70
54558;DHT22;40452;50.080;20.040;2022-10-16T20:22:20;21.20;57.60
54558;DHT22;40452;50.080;20.040;2022-10-16T20:24:45;21.20;57.60
54558;DHT22;40452;50.080;20.040;2022-10-16T20:27:11;21.20;57.50
54558;DHT22;40452;50.080;20.040;2022-10-16T20:29:36;21.20;57.50
54558;DHT22;40452;50.080;20.040;2022-10-16T20:32:02;21.20;57.60
54558;DHT22;40452;50.080;20.040;2022-10-16T20:34:28;21.20;57.50
54558;DHT22;40452;50.080;20.040;2022-10-16T20:36:53;21.20;57.50
54558;DHT22;40452;50.080;20.040;2022-10-16T20:39:19;21.20;57.50
54558;DHT22;40452;50.080;20.040;2022-10-16T20:41:44;21.20;57.40
54558;DHT22;40452;50.080;20.040;2022-10-16T20:44:10;21.20;57.40
54558;DHT22;40452;50.080;20.040;2022-10-16T20:46:35;21.20;57.40
54558;DHT22;40452;50.080;20.040;2022-10-16T20:49:01;21.20;57.30
54558;DHT22;40452;50.080;20.040;2022-10-16T20:51:30;21.20;57.30
54558;DHT22;40452;50.080;20.040;2022-10-16T20:54:04;21.20;57.30
54558;DHT22;40452;50.080;20.040;2022-10-16T20:56:32;21.20;57.30
54558;DHT22;40452;50.080;20.040;2022-10-16T20:58:58;21.20;57.20
54558;DHT22;40452;50.080;20.040;2022-10-16T21:01:26;21.20;57.20
54558;DHT22;40452;50.080;20.040;2022-10-16T21:03:55;21.20;57.20
54558;DHT22;40452;50.080;20.040;2022-10-16T21:06:22;21.20;57.20
54558;DHT22;40452;50.080;20.040;2022-10-16T21:08:47;21.20;57.10
54558;DHT22;40452;50.080;20.040;2022-10-16T21:11:19;21.20;57.10
54558;DHT22;40452;50.080;20.040;2022-10-16T21:13:45;21.20;57.10
54558;DHT22;40452;50.080;20.040;2022-10-16T21:16:11;21.20;57.00
54558;DHT22;40452;50.080;20.040;2022-10-16T21:18:37;21.20;57.00
54558;DHT22;40452;50.080;20.040;2022-10-16T21:21:03;21.20;56.90
54558;DHT22;40452;50.080;20.040;2022-10-16T21:23:30;21.20;56.80
54558;DHT22;40452;50.080;20.040;2022-10-16T21:25:56;21.20;56.80
54558;DHT22;40452;50.080;20.040;2022-10-16T21:28:22;21.20;56.90
54558;DHT22;40452;50.080;20.040;2022-10-16T21:30:47;21.20;56.80
54558;DHT22;40452;50.080;20.040;2022-10-16T21:33:13;21.20;56.80
54558;DHT22;40452;50.080;20.040;2022-10-16T21:35:38;21.20;56.70
54558;DHT22;40452;50.080;20.040;2022-10-16T21:38:04;21.20;56.70
54558;DHT22;40452;50.080;20.040;2022-10-16T21:40:31;21.20;56.80
54558;DHT22;40452;50.080;20.040;2022-10-16T21:42:57;21.20;56.70
54558;DHT22;40452;50.080;20.040;2022-10-16T21:45:23;21.20;56.70
54558;DHT22;40452;50.080;20.040;2022-10-16T21:47:48;21.20;56.70
54558;DHT22;40452;50.080;20.040;2022-10-16T21:50:14;21.20;56.70
54558;DHT22;40452;50.080;20.040;2022-10-16T21:52:39;21.20;56.70
54558;DHT22;40452;50.080;20.040;2022-10-16T21:55:05;21.20;56.70
54558;DHT22;40452;50.080;20.040;2022-10-16T21:57:31;21.20;56.70
54558;DHT22;40452;50.080;20.040;2022-10-16T21:59:57;21.20;56.70
54558;DHT22;40452;50.080;20.040;2022-10-16T22:02:22;21.20;56.70
54558;DHT22;40452;50.080;20.040;2022-10-16T22:04:48;21.20;56.60
54558;DHT22;40452;50.080;20.040;2022-10-16T22:07:13;21.20;56.70
54558;DHT22;40452;50.080;20.040;2022-10-16T22:09:39;21.20;56.70
54558;DHT22;40452;50.080;20.040;2022-10-16T22:12:04;21.20;56.50
54558;DHT22;40452;50.080;20.040;2022-10-16T22:14:30;21.30;56.60
54558;DHT22;40452;50.080;20.040;2022-10-16T22:16:55;21.20;56.50
54558;DHT22;40452;50.080;20.040;2022-10-16T22:19:21;21.20;56.80
54558;DHT22;40452;50.080;20.040;2022-10-16T22:21:48;21.30;56.70